sensor_id;sensor_type;location;lat;lon;timestamp;temperature;humidity
20698;DHT22;10508;50.956;4.640;2023-09-30T09:53:42;20.30;99.90
20698;DHT22;10508;50.956;4.640;2023-09-30T09:56:09;20.40;99.90
20698;DHT22;10508;50.956;4.640;2023-09-30T09:58:36;20.60;99.90
20698;DHT22;10508;50.956;4.640;2023-09-30T10:11:19;22.70;99.90
20698;DHT22;10508;50.956;4.640;2023-09-30T10:19:14;25.00;99.90
20698;DHT22;10508;50.956;4.640;2023-09-30T10:22:19;25.10;99.90
20698;DHT22;10508;50.956;4.640;2023-09-30T10:40:48;26.50;99.90
20698;DHT22;10508;50.956;4.640;2023-09-30T10:43:29;26.50;99.90
20698;DHT22;10508;50.956;4.640;2023-09-30T10:45:56;27.00;99.90
20698;DHT22;10508;50.956;4.640;2023-09-30T10:51:10;26.40;99.90
20698;DHT22;10508;50.956;4.640;2023-09-30T10:53:41;26.50;99.90
20698;DHT22;10508;50.956;4.640;2023-09-30T10:56:07;26.70;99.90
20698;DHT22;10508;50.956;4.640;2023-09-30T13:00:56;24.10;99.90
20698;DHT22;10508;50.956;4.640;2023-09-30T13:03:22;24.00;99.90
20698;DHT22;10508;50.956;4.640;2023-09-30T15:06:37;21.30;99.90
20698;DHT22;10508;50.956;4.640;2023-09-30T16:28:01;20.20;99.90
20698;DHT22;10508;50.956;4.640;2023-09-30T16:32:55;19.80;99.90
20698;DHT22;10508;50.956;4.640;2023-09-30T16:35:20;19.70;99.90
20698;DHT22;10508;50.956;4.640;2023-09-30T16:42:43;19.50;99.90
20698;DHT22;10508;50.956;4.640;2023-09-30T16:47:39;19.40;99.90
20698;DHT22;10508;50.956;4.640;2023-09-30T16:55:01;19.30;99.90
20698;DHT22;10508;50.956;4.640;2023-09-30T16:57:27;19.20;99.90
20698;DHT22;10508;50.956;4.640;2023-09-30T16:59:52;19.10;99.90
20698;DHT22;10508;50.956;4.640;2023-09-30T17:29:20;17.90;99.90
20698;DHT22;10508;50.956;4.640;2023-09-30T17:41:36;17.70;99.90
20698;DHT22;10508;50.956;4.640;2023-09-30T17:44:02;17.70;99.90
20698;DHT22;10508;50.956;4.640;2023-09-30T17:56:23;17.20;99.90
20698;DHT22;10508;50.956;4.640;2023-09-30T17:58:53;17.20;99.90
20698;DHT22;10508;50.956;4.640;2023-09-30T18:03:48;17.30;99.90
20698;DHT22;10508;50.956;4.640;2023-09-30T18:06:17;17.40;99.90
20698;DHT22;10508;50.956;4.640;2023-09-30T18:08:45;17.40;99.90
20698;DHT22;10508;50.956;4.640;2023-09-30T18:11:12;17.30;99.90
20698;DHT22;10508;50.956;4.640;2023-09-30T18:28:20;16.80;99.90
20698;DHT22;10508;50.956;4.640;2023-09-30T18:30:46;16.80;99.90
20698;DHT22;10508;50.956;4.640;2023-09-30T18:43:09;16.40;99.90
20698;DHT22;10508;50.956;4.640;2023-09-30T18:48:08;16.30;99.90
20698;DHT22;10508;50.956;4.640;2023-09-30T19:00:44;15.90;99.90
20698;DHT22;10508;50.956;4.640;2023-09-30T19:20:27;15.50;99.90
20698;DHT22;10508;50.956;4.640;2023-09-30T19:27:47;15.50;99.90
20698;DHT22;10508;50.956;4.640;2023-09-30T19:30:13;15.70;99.90
20698;DHT22;10508;50.956;4.640;2023-09-30T19:32:39;15.60;99.90
20698;DHT22;10508;50.956;4.640;2023-09-30T19:35:05;15.60;99.90
20698;DHT22;10508;50.956;4.640;2023-09-30T19:37:32;15.40;99.90
20698;DHT22;10508;50.956;4.640;2023-09-30T19:39:58;15.30;99.90
20698;DHT22;10508;50.956;4.640;2023-09-30T19:42:25;15.30;99.90
20698;DHT22;10508;50.956;4.640;2023-09-30T19:44:52;15.30;99.90
20698;DHT22;10508;50.956;4.640;2023-09-30T19:47:18;14.90;99.90
20698;DHT22;10508;50.956;4.640;2023-09-30T19:49:44;14.90;99.90
20698;DHT22;10508;50.956;4.640;2023-09-30T19:52:10;15.00;99.90
20698;DHT22;10508;50.956;4.640;2023-09-30T19:54:37;15.10;99.90
20698;DHT22;10508;50.956;4.640;2023-09-30T19:57:03;15.00;99.90
20698;DHT22;10508;50.956;4.640;2023-09-30T19:59:30;14.90;99.90
20698;DHT22;10508;50.956;4.640;2023-09-30T20:01:57;14.90;99.90
20698;DHT22;10508;50.956;4.640;2023-09-30T20:04:23;14.80;99.90
20698;DHT22;10508;50.956;4.640;2023-09-30T20:09:20;14.80;99.90
20698;DHT22;10508;50.956;4.640;2023-09-30T20:11:49;14.80;99.90
20698;DHT22;10508;50.956;4.640;2023-09-30T20:14:15;14.80;99.90
20698;DHT22;10508;50.956;4.640;2023-09-30T20:21:38;14.70;99.90
20698;DHT22;10508;50.956;4.640;2023-09-30T20:34:00;14.50;99.90
20698;DHT22;10508;50.956;4.640;2023-09-30T20:38:55;14.40;99.90
20698;DHT22;10508;50.956;4.640;2023-09-30T20:41:21;14.40;99.90
20698;DHT22;10508;50.956;4.640;2023-09-30T20:44:05;14.40;99.90
20698;DHT22;10508;50.956;4.640;2023-09-30T20:46:34;14.40;99.90
20698;DHT22;10508;50.956;4.640;2023-09-30T20:49:00;14.30;99.90
20698;DHT22;10508;50.956;4.640;2023-09-30T20:51:26;14.30;99.90
20698;DHT22;10508;50.956;4.640;2023-09-30T20:53:52;14.30;99.90
20698;DHT22;10508;50.956;4.640;2023-09-30T20:56:19;14.30;99.90
20698;DHT22;10508;50.956;4.640;2023-09-30T20:58:45;14.20;99.90
20698;DHT22;10508;50.956;4.640;2023-09-30T21:01:12;14.20;99.90
20698;DHT22;10508;50.956;4.640;2023-09-30T21:03:39;14.30;99.90
20698;DHT22;10508;50.956;4.640;2023-09-30T21:06:06;14.30;99.90
20698;DHT22;10508;50.956;4.640;2023-09-30T21:08:35;14.30;99.90
20698;DHT22;10508;50.956;4.640;2023-09-30T21:11:10;14.20;99.90
20698;DHT22;10508;50.956;4.640;2023-09-30T21:13:36;14.20;99.90
20698;DHT22;10508;50.956;4.640;2023-09-30T21:16:02;14.20;99.90
20698;DHT22;10508;50.956;4.640;2023-09-30T21:18:28;14.10;99.90
20698;DHT22;10508;50.956;4.640;2023-09-30T21:20:54;14.10;99.90
20698;DHT22;10508;50.956;4.640;2023-09-30T21:23:19;14.00;99.90
20698;DHT22;10508;50.956;4.640;2023-09-30T21:25:46;14.00;99.90
20698;DHT22;10508;50.956;4.640;2023-09-30T21:28:12;13.90;99.90
20698;DHT22;10508;50.956;4.640;2023-09-30T21:30:38;13.90;99.90
20698;DHT22;10508;50.956;4.640;2023-09-30T21:33:06;13.80;99.90
20698;DHT22;10508;50.956;4.640;2023-09-30T21:35:33;13.90;99.90
20698;DHT22;10508;50.956;4.640;2023-09-30T21:37:58;13.90;99.90
20698;DHT22;10508;50.956;4.640;2023-09-30T21:40:24;13.90;99.90
20698;DHT22;10508;50.956;4.640;2023-09-30T21:42:50;13.70;99.90
20698;DHT22;10508;50.956;4.640;2023-09-30T21:45:16;13.80;99.90
20698;DHT22;10508;50.956;4.640;2023-09-30T21:47:41;13.60;99.90
20698;DHT22;10508;50.956;4.640;2023-09-30T21:50:08;13.50;99.90
20698;DHT22;10508;50.956;4.640;2023-09-30T21:52:35;13.50;99.90
20698;DHT22;10508;50.956;4.640;2023-09-30T21:55:00;13.30;99.90
20698;DHT22;10508;50.956;4.640;2023-09-30T21:57:26;13.20;99.90
20698;DHT22;10508;50.956;4.640;2023-09-30T21:59:51;13.20;99.90
20698;DHT22;10508;50.956;4.640;2023-09-30T22:02:17;13.30;99.90
20698;DHT22;10508;50.956;4.640;2023-09-30T22:04:43;13.30;99.90
20698;DHT22;10508;50.956;4.640;2023-09-30T22:07:10;13.30;99.90
20698;DHT22;10508;50.956;4.640;2023-09-30T22:09:35;13.30;99.90
20698;DHT22;10508;50.956;4.640;2023-09-30T22:12:01;13.30;99.90
20698;DHT22;10508;50.956;4.640;2023-09-30T22:14:27;13.10;99.90
20698;DHT22;10508;50.956;4.640;2023-09-30T22:16:53;13.30;99.90
20698;DHT22;10508;50.956;4.640;2023-09-30T22:19:19;13.40;99.90
20698;DHT22;10508;50.956;4.640;2023-09-30T22:21:47;13.50;99.90
20698;DHT22;10508;50.956;4.640;2023-09-30T22:24:13;13.50;99.90
20698;DHT22;10508;50.956;4.640;2023-09-30T22:26:41;13.40;99.90
20698;DHT22;10508;50.956;4.640;2023-09-30T22:29:08;13.40;99.90
20698;DHT22;10508;50.956;4.640;2023-09-30T22:31:34;13.40;99.90
20698;DHT22;10508;50.956;4.640;2023-09-30T22:34:02;13.30;99.90
20698;DHT22;10508;50.956;4.640;2023-09-30T23:01:24;13.10;99.90
20698;DHT22;10508;50.956;4.640;2023-09-30T23:03:50;13.00;99.90
20698;DHT22;10508;50.956;4.640;2023-09-30T23:43:47;12.90;99.90
20698;DHT22;10508;50.956;4.640;2023-09-30T23:51:10;13.00;99.90
20698;DHT22;10508;50.956;4.640;2023-09-30T23:53:36;13.00;99.90
20698;DHT22;10508;50.956;4.640;2023-09-30T23:56:16;13.00;99.90
